aviador You're here:

KBTL Decoded Metar

BATTLE CREEK in MI, USA
Report Time2018-05-28 08:53:00
UTC Time2018-05-28 09:43:10
Flight Rules vfr VFR
WindCalm
Visibility9999 m
Phenomena:N/A
Clouds:N/A
Expected CloudBase > 800 ft AGL from Temp-Dew spread
CeilingNone
Temp18°C (ISA +5)
Dew Point16°C (88% RH)
QNH1014 hPa
Density Alt1,736 ft
Elevation951 ft
Report Wrong Elevation
Raw Report
KBTL 280853Z AUTO 00000KT 10SM CLR 18/16 A2994 RMK AO2 SLP130
T01830156 55002=

Extra information for KBTL:More info

Metar Taf Metar & Taf Last 4 Metars F.Rules Stats Wind Profile Meteogram Temp Stats Airport Information Weather charts Add Link Nearby VenuesMetar ALERT Operation Metar Decoded Social comments

AIRNAV info for KBTL